createdAt,value
2022-11-24T00:00:11.261Z,19.00
2022-11-24T00:02:38.361Z,16.50
2022-11-24T00:05:08.184Z,19.00
2022-11-24T00:07:35.896Z,19.80
2022-11-24T00:10:03.918Z,19.90
2022-11-24T00:12:31.013Z,16.70
2022-11-24T00:14:58.053Z,17.90
2022-11-24T00:17:25.161Z,20.50
2022-11-24T00:19:52.202Z,18.30
2022-11-24T00:22:19.250Z,17.50
2022-11-24T00:24:46.294Z,17.20
2022-11-24T00:27:13.444Z,14.20
2022-11-24T00:29:40.462Z,17.30
2022-11-24T00:32:07.535Z,16.00
2022-11-24T00:34:34.928Z,14.40
2022-11-24T00:37:02.141Z,15.00
2022-11-24T00:39:29.187Z,12.50
2022-11-24T00:41:56.439Z,13.30
2022-11-24T00:44:23.345Z,13.20
2022-11-24T00:46:50.730Z,14.50
2022-11-24T00:49:17.781Z,15.00
2022-11-24T00:51:44.831Z,12.80
2022-11-24T00:54:12.285Z,13.20
2022-11-24T00:56:39.672Z,12.00
2022-11-24T00:59:07.095Z,9.00
2022-11-24T01:01:34.504Z,12.30
2022-11-24T01:04:02.565Z,13.20
2022-11-24T01:06:30.589Z,12.10
2022-11-24T01:08:57.946Z,12.60
2022-11-24T01:11:27.048Z,13.40
2022-11-24T01:13:57.515Z,11.70
2022-11-24T01:16:25.778Z,10.50
2022-11-24T01:18:54.147Z,14.00
2022-11-24T01:21:21.365Z,13.80
2022-11-24T01:23:48.625Z,11.30
2022-11-24T01:26:17.287Z,11.30
2022-11-24T01:28:47.381Z,11.30
2022-11-24T01:31:15.773Z,12.10
2022-11-24T01:33:43.069Z,16.60
2022-11-24T01:36:10.098Z,11.50
2022-11-24T01:38:37.252Z,9.20
2022-11-24T01:41:06.752Z,12.80
2022-11-24T01:43:34.919Z,12.60
2022-11-24T01:46:23.328Z,12.40
2022-11-24T01:49:02.102Z,13.10
2022-11-24T01:51:30.861Z,13.70
2022-11-24T01:54:14.526Z,15.20
2022-11-24T01:56:42.925Z,11.80
2022-11-24T01:59:11.333Z,7.90
2022-11-24T02:01:38.905Z,9.50
2022-11-24T02:04:08.370Z,10.40
2022-11-24T02:06:35.683Z,10.50
2022-11-24T02:09:12.565Z,11.30
2022-11-24T02:11:39.829Z,9.10
2022-11-24T02:14:07.880Z,10.80
2022-11-24T02:16:36.198Z,9.50
2022-11-24T02:19:06.936Z,10.30
2022-11-24T02:21:34.751Z,9.40
2022-11-24T02:24:37.540Z,11.60
2022-11-24T02:27:04.479Z,11.70
2022-11-24T02:29:32.040Z,7.50
2022-11-24T02:32:00.829Z,7.50
2022-11-24T02:34:28.283Z,10.30
2022-11-24T02:36:55.433Z,8.40
2022-11-24T02:39:22.510Z,8.40
2022-11-24T02:41:59.464Z,9.50
2022-11-24T02:44:29.121Z,10.30
2022-11-24T02:47:09.918Z,8.80
2022-11-24T02:49:37.081Z,9.00
2022-11-24T02:52:04.538Z,10.30
2022-11-24T02:54:32.471Z,10.30
2022-11-24T02:57:03.445Z,10.60
2022-11-24T02:59:30.796Z,7.40
2022-11-24T03:01:57.880Z,7.00
2022-11-24T03:04:25.196Z,8.10
2022-11-24T03:06:53.000Z,8.30
2022-11-24T03:09:20.214Z,8.70
2022-11-24T03:11:48.083Z,8.50
2022-11-24T03:14:15.433Z,7.30
2022-11-24T03:16:44.216Z,9.00
2022-11-24T03:19:11.469Z,9.90
2022-11-24T03:21:38.424Z,8.40
2022-11-24T03:24:05.777Z,7.80
2022-11-24T03:26:35.390Z,8.30
2022-11-24T03:29:02.297Z,6.70
2022-11-24T03:31:29.357Z,5.80
2022-11-24T03:33:56.925Z,7.80
2022-11-24T03:36:24.069Z,8.90
2022-11-24T03:38:51.535Z,7.70
2022-11-24T03:41:19.241Z,8.30
2022-11-24T03:43:46.236Z,8.50
2022-11-24T03:46:13.776Z,9.70
2022-11-24T03:48:41.161Z,8.90
2022-11-24T03:51:08.497Z,8.10
2022-11-24T03:53:35.556Z,11.60
2022-11-24T03:56:02.692Z,7.50
2022-11-24T03:58:30.322Z,6.40
2022-11-24T04:00:57.503Z,8.10
2022-11-24T04:03:25.164Z,8.70
2022-11-24T04:05:52.245Z,10.50
2022-11-24T04:08:19.562Z,9.90
2022-11-24T04:10:50.784Z,10.80
2022-11-24T04:13:19.131Z,10.90
2022-11-24T04:15:47.557Z,11.50
2022-11-24T04:18:15.121Z,13.40
2022-11-24T04:20:42.423Z,11.30
2022-11-24T04:23:09.993Z,10.10
2022-11-24T04:25:37.411Z,10.40
2022-11-24T04:28:04.638Z,8.30
2022-11-24T04:30:31.590Z,9.60
2022-11-24T04:33:00.078Z,10.70
2022-11-24T04:35:27.422Z,12.20
2022-11-24T04:37:54.822Z,9.90
2022-11-24T04:40:22.334Z,10.50
2022-11-24T04:42:54.760Z,10.30
2022-11-24T04:45:23.030Z,11.90
2022-11-24T04:47:50.125Z,11.10
2022-11-24T04:50:17.414Z,10.70
2022-11-24T04:52:44.739Z,10.90
2022-11-24T04:55:12.320Z,8.90
2022-11-24T04:57:39.640Z,7.30
2022-11-24T05:00:08.016Z,8.20
2022-11-24T05:02:35.303Z,7.70
2022-11-24T05:05:02.317Z,9.50
2022-11-24T05:07:29.668Z,11.10
2022-11-24T05:10:15.746Z,9.20
2022-11-24T05:12:51.061Z,10.30
2022-11-24T05:15:18.603Z,10.10
2022-11-24T05:17:45.599Z,9.20
2022-11-24T05:20:12.645Z,10.90
2022-11-24T05:22:39.588Z,10.60
2022-11-24T05:25:06.842Z,8.70
2022-11-24T05:27:34.088Z,9.60
2022-11-24T05:30:00.920Z,9.40
2022-11-24T05:32:27.982Z,8.60
2022-11-24T05:34:54.933Z,11.90
2022-11-24T05:37:21.891Z,11.30
2022-11-24T05:39:48.910Z,12.00
2022-11-24T05:42:34.300Z,7.80
2022-11-24T05:45:01.437Z,9.40
2022-11-24T05:47:29.844Z,8.20
2022-11-24T05:49:56.756Z,9.20
2022-11-24T05:52:23.844Z,9.60
2022-11-24T05:54:51.159Z,8.10
2022-11-24T05:57:18.178Z,8.20
2022-11-24T05:59:45.088Z,7.10
2022-11-24T06:02:12.110Z,8.70
2022-11-24T06:04:39.178Z,10.70
2022-11-24T06:07:10.177Z,10.40
2022-11-24T06:09:38.484Z,12.50
2022-11-24T06:12:08.772Z,10.30
2022-11-24T06:14:36.520Z,11.00
2022-11-24T06:17:04.157Z,10.90
2022-11-24T06:19:31.721Z,10.00
2022-11-24T06:21:58.662Z,8.90
2022-11-24T06:24:25.525Z,8.10
2022-11-24T06:26:52.378Z,8.60
2022-11-24T06:29:19.261Z,7.00
2022-11-24T06:31:46.121Z,8.40
2022-11-24T06:34:14.421Z,8.60
2022-11-24T06:36:41.588Z,7.90
2022-11-24T06:39:08.455Z,8.10
2022-11-24T06:41:36.834Z,9.80
2022-11-24T06:44:04.694Z,11.60
2022-11-24T06:46:31.980Z,12.80
2022-11-24T06:48:59.976Z,10.20
2022-11-24T06:51:27.868Z,8.20
2022-11-24T06:53:55.142Z,6.10
2022-11-24T06:56:22.674Z,9.30
2022-11-24T06:58:51.038Z,10.20
2022-11-24T07:01:27.804Z,8.10
2022-11-24T07:03:55.122Z,8.90
2022-11-24T07:06:22.585Z,10.40
2022-11-24T07:08:50.075Z,12.70
2022-11-24T07:11:18.849Z,11.20
2022-11-24T07:13:53.828Z,9.30
2022-11-24T07:18:53.315Z,10.30
2022-11-24T07:21:21.658Z,9.30
2022-11-24T07:23:49.888Z,8.00
2022-11-24T07:26:17.543Z,8.60
2022-11-24T07:28:44.634Z,8.60
2022-11-24T07:31:14.211Z,7.40
2022-11-24T07:33:54.352Z,7.10
2022-11-24T07:36:21.923Z,11.40
2022-11-24T07:38:49.257Z,17.80
2022-11-24T07:41:19.503Z,45.00
2022-11-24T07:43:47.175Z,26.20
2022-11-24T07:46:15.190Z,12.10
2022-11-24T07:48:42.356Z,7.70
2022-11-24T07:51:09.865Z,8.30
2022-11-24T07:53:37.735Z,6.30
2022-11-24T07:56:06.164Z,5.30
2022-11-24T07:58:35.313Z,5.60
2022-11-24T08:01:12.433Z,6.10
2022-11-24T08:03:40.210Z,6.60
2022-11-24T08:06:23.606Z,7.20
2022-11-24T08:08:53.202Z,6.10
2022-11-24T08:11:20.291Z,5.90
2022-11-24T08:13:47.488Z,7.90
2022-11-24T08:16:16.415Z,8.40
2022-11-24T08:18:43.782Z,7.60
2022-11-24T08:21:14.148Z,8.40
2022-11-24T08:23:43.109Z,7.10
2022-11-24T08:26:16.114Z,6.20
2022-11-24T08:28:43.098Z,6.40
2022-11-24T08:31:12.505Z,5.80
2022-11-24T08:33:39.869Z,7.70
2022-11-24T08:36:08.756Z,6.10
2022-11-24T08:38:40.199Z,8.30
2022-11-24T08:41:11.631Z,9.10
2022-11-24T08:43:38.716Z,11.00
2022-11-24T08:46:14.380Z,10.60
2022-11-24T08:48:41.745Z,12.90
2022-11-24T08:51:09.686Z,10.00
2022-11-24T08:53:58.638Z,8.00
2022-11-24T08:56:27.102Z,7.60
2022-11-24T08:58:54.843Z,10.60
2022-11-24T09:01:21.995Z,10.00
2022-11-24T09:03:50.980Z,9.10
2022-11-24T09:08:53.932Z,8.00
2022-11-24T09:11:21.084Z,8.10
2022-11-24T09:13:48.910Z,7.50
2022-11-24T09:16:26.862Z,8.50
2022-11-24T09:18:58.850Z,6.80
2022-11-24T09:21:25.781Z,8.30
2022-11-24T09:23:53.257Z,13.10
2022-11-24T09:26:28.354Z,11.10
2022-11-24T09:28:56.104Z,12.80
2022-11-24T09:31:25.414Z,11.60
2022-11-24T09:33:52.575Z,14.10
2022-11-24T09:36:19.706Z,11.00
2022-11-24T09:38:46.484Z,9.10
2022-11-24T14:36:16.709Z,43.00
2022-11-24T14:38:43.916Z,40.30
2022-11-24T14:41:26.376Z,36.20
2022-11-24T14:44:10.792Z,19.20
2022-11-24T14:46:40.014Z,18.30
2022-11-24T14:49:07.628Z,33.70
2022-11-24T14:51:36.039Z,34.60
2022-11-24T14:54:05.912Z,48.70
2022-11-24T14:56:37.852Z,36.70
2022-11-24T14:59:24.152Z,30.70
2022-11-24T15:01:51.784Z,28.70
2022-11-24T15:07:26.276Z,14.20
2022-11-24T15:09:55.283Z,19.00
2022-11-24T15:12:39.262Z,18.30
2022-11-24T15:15:12.219Z,18.70
2022-11-24T15:17:51.654Z,15.90
2022-11-24T15:20:37.850Z,16.10
2022-11-24T15:23:30.011Z,34.40
2022-11-24T15:26:17.471Z,34.50
2022-11-24T15:28:46.306Z,30.00
2022-11-24T15:31:14.028Z,15.70
2022-11-24T15:33:41.624Z,13.90
2022-11-24T15:36:08.555Z,11.50
2022-11-24T15:38:35.585Z,8.60
2022-11-24T15:41:05.350Z,15.10
2022-11-24T15:43:34.481Z,45.10
2022-11-24T15:46:01.940Z,66.10
2022-11-24T15:48:29.355Z,51.70
2022-11-24T15:50:56.851Z,48.10
2022-11-24T15:53:29.691Z,30.70
2022-11-24T15:55:58.245Z,37.10
2022-11-24T15:58:25.765Z,38.40
2022-11-24T16:00:53.870Z,21.70
2022-11-24T16:06:11.833Z,22.80
2022-11-24T16:08:40.207Z,22.50
2022-11-24T16:11:11.103Z,55.60
2022-11-24T16:13:38.238Z,33.40
2022-11-24T16:16:06.078Z,33.70
2022-11-24T16:18:35.369Z,19.00
2022-11-24T16:21:02.245Z,35.30
2022-11-24T16:23:29.280Z,26.40
2022-11-24T16:25:56.349Z,26.10
2022-11-24T16:28:23.953Z,18.40
2022-11-24T16:30:50.934Z,18.00
2022-11-24T16:33:17.782Z,41.90
2022-11-24T16:35:48.564Z,27.50
2022-11-24T16:38:19.301Z,24.00
2022-11-24T16:40:59.200Z,48.40
2022-11-24T16:43:26.307Z,80.20
2022-11-24T16:46:17.438Z,63.00
2022-11-24T16:48:46.198Z,53.20
2022-11-24T16:51:13.621Z,64.40
2022-11-24T16:53:40.698Z,31.40
2022-11-24T16:56:09.207Z,28.50
2022-11-24T16:58:40.217Z,41.00
2022-11-24T17:01:10.406Z,25.20
2022-11-24T17:03:39.490Z,19.60
2022-11-24T17:06:08.326Z,16.40
2022-11-24T17:08:36.455Z,15.20
2022-11-24T17:11:06.281Z,10.70
2022-11-24T17:13:36.936Z,10.30
2022-11-24T17:16:08.398Z,21.20
2022-11-24T17:18:35.736Z,73.10
2022-11-24T17:21:07.767Z,32.00
2022-11-24T17:23:36.937Z,31.50
2022-11-24T17:26:05.467Z,23.10
2022-11-24T17:28:32.548Z,12.30
2022-11-24T17:31:05.473Z,7.70
2022-11-24T17:33:34.068Z,8.70
2022-11-24T17:36:04.499Z,10.50
2022-11-24T17:38:31.857Z,9.30
2022-11-24T17:40:59.153Z,10.20
2022-11-24T17:43:27.702Z,18.60
2022-11-24T17:45:55.925Z,18.30
2022-11-24T17:48:23.405Z,8.50
2022-11-24T17:51:09.770Z,11.60
2022-11-24T17:53:40.606Z,7.70
2022-11-24T17:56:17.105Z,15.50
2022-11-24T17:58:44.097Z,11.30
2022-11-24T18:01:13.673Z,8.90
2022-11-24T18:03:41.471Z,9.60
2022-11-24T18:06:09.424Z,13.50
2022-11-24T18:08:46.717Z,7.20
2022-11-24T18:11:13.591Z,10.20
2022-11-24T18:13:56.456Z,6.60
2022-11-24T18:16:28.433Z,6.30
2022-11-24T18:19:07.675Z,6.80
2022-11-24T18:21:38.948Z,29.30
2022-11-24T18:24:07.490Z,43.70
2022-11-24T18:26:34.361Z,29.00
2022-11-24T18:29:01.285Z,15.50
2022-11-24T18:31:29.422Z,12.30
2022-11-24T18:33:56.766Z,24.30
2022-11-24T18:36:30.009Z,11.50
2022-11-24T18:39:02.552Z,10.50
2022-11-24T18:41:29.524Z,6.30
2022-11-24T18:43:56.546Z,15.90
2022-11-24T18:46:23.628Z,16.10
2022-11-24T18:48:53.171Z,7.50
2022-11-24T18:51:22.752Z,8.10
2022-11-24T18:53:51.651Z,6.30
2022-11-24T18:56:19.234Z,6.90
2022-11-24T18:58:46.136Z,12.70
2022-11-24T19:01:17.737Z,10.40
2022-11-24T19:03:48.670Z,7.40
2022-11-24T19:06:19.973Z,6.70
2022-11-24T19:08:48.418Z,9.30
2022-11-24T19:11:19.138Z,14.50
2022-11-24T19:13:47.753Z,7.10
2022-11-24T19:16:17.670Z,4.80
2022-11-24T19:18:48.920Z,3.90
2022-11-24T19:21:20.925Z,3.90
2022-11-24T19:23:47.777Z,4.70
2022-11-24T19:26:15.315Z,6.50
2022-11-24T19:28:42.551Z,6.70
2022-11-24T19:31:11.316Z,5.70
2022-11-24T19:33:38.371Z,10.10
2022-11-24T19:36:07.557Z,31.60
2022-11-24T19:38:35.262Z,11.20
2022-11-24T19:41:06.033Z,7.70
2022-11-24T19:43:34.510Z,10.70
2022-11-24T19:46:02.793Z,4.90
2022-11-24T19:48:33.133Z,4.00
2022-11-24T19:51:04.619Z,5.30
2022-11-24T19:53:31.750Z,4.90
2022-11-24T19:56:08.392Z,14.30
2022-11-24T19:58:35.889Z,14.40
2022-11-24T20:01:13.466Z,16.80
2022-11-24T20:03:41.396Z,22.20
2022-11-24T20:06:10.218Z,10.60
2022-11-24T20:08:37.741Z,19.10
2022-11-24T20:11:14.315Z,13.10
2022-11-24T20:13:45.536Z,7.80
2022-11-24T20:16:14.837Z,7.80
2022-11-24T20:18:46.037Z,5.50
2022-11-24T20:21:18.152Z,2.40
2022-11-24T20:23:46.336Z,5.80
2022-11-24T20:26:19.766Z,10.30
2022-11-24T20:28:47.081Z,8.20
2022-11-24T20:31:16.125Z,6.00
2022-11-24T20:33:43.294Z,2.60
2022-11-24T20:36:15.070Z,5.60
2022-11-24T20:38:42.490Z,7.80
2022-11-24T20:41:11.512Z,7.60
2022-11-24T20:43:38.871Z,6.10
2022-11-24T20:46:26.992Z,3.70
2022-11-24T20:48:54.518Z,3.50
2022-11-24T20:51:26.733Z,3.00
2022-11-24T20:53:58.162Z,3.20
2022-11-24T20:56:36.528Z,4.30
2022-11-24T20:59:04.440Z,4.60
2022-11-24T21:01:35.131Z,3.10
2022-11-24T21:04:02.380Z,4.40
2022-11-24T21:06:29.668Z,6.90
2022-11-24T21:09:02.039Z,6.30
2022-11-24T21:11:30.582Z,5.40
2022-11-24T21:13:57.361Z,3.70
2022-11-24T21:16:24.994Z,4.60
2022-11-24T21:18:53.281Z,3.30
2022-11-24T21:21:21.068Z,4.60
2022-11-24T21:23:48.039Z,3.30
2022-11-24T21:26:17.191Z,2.10
2022-11-24T21:28:45.566Z,2.80
2022-11-24T21:31:14.223Z,2.70
2022-11-24T21:33:46.579Z,3.60
2022-11-24T21:36:14.725Z,3.10
2022-11-24T21:38:42.645Z,2.30
2022-11-24T21:41:11.765Z,3.10
2022-11-24T21:43:38.784Z,6.40
2022-11-24T21:46:06.893Z,4.30
2022-11-24T21:48:34.530Z,6.10
2022-11-24T21:51:02.369Z,7.20
2022-11-24T21:53:30.780Z,4.40
2022-11-24T21:55:58.645Z,2.90
2022-11-24T21:58:25.707Z,15.20
2022-11-24T22:00:52.701Z,5.70
2022-11-24T22:03:20.032Z,6.80
2022-11-24T22:05:54.300Z,15.70
2022-11-24T22:08:21.495Z,10.90
2022-11-24T22:10:48.402Z,5.90
2022-11-24T22:13:15.159Z,8.00
2022-11-24T22:15:43.975Z,4.20
2022-11-24T22:18:10.903Z,2.40
2022-11-24T22:20:38.131Z,2.80
2022-11-24T22:23:06.253Z,2.90
2022-11-24T22:25:35.077Z,2.30
2022-11-24T22:28:01.839Z,2.90
2022-11-24T22:30:28.809Z,2.20
2022-11-24T22:32:55.775Z,2.70
2022-11-24T22:35:22.566Z,3.50
2022-11-24T22:37:49.371Z,2.40
2022-11-24T22:40:17.366Z,2.70
2022-11-24T22:42:47.671Z,3.50
2022-11-24T22:45:18.360Z,1.80
2022-11-24T22:47:45.569Z,2.10
2022-11-24T22:50:12.865Z,2.50
2022-11-24T22:52:40.654Z,2.20
2022-11-24T22:55:07.887Z,3.20
2022-11-24T22:57:35.111Z,3.00
2022-11-24T23:00:02.065Z,3.20
2022-11-24T23:02:29.354Z,3.30
2022-11-24T23:04:56.178Z,4.70
2022-11-24T23:07:24.582Z,4.70
2022-11-24T23:09:51.420Z,3.30
2022-11-24T23:12:18.715Z,4.30
2022-11-24T23:14:46.360Z,4.00
2022-11-24T23:17:13.145Z,3.10
2022-11-24T23:19:40.341Z,4.70
2022-11-24T23:22:07.405Z,2.80
2022-11-24T23:24:38.116Z,2.40
2022-11-24T23:27:06.043Z,3.20
2022-11-24T23:29:33.429Z,3.50
2022-11-24T23:32:00.496Z,2.90
2022-11-24T23:34:27.350Z,2.70
2022-11-24T23:36:54.305Z,4.10
2022-11-24T23:39:21.044Z,3.00
2022-11-24T23:41:48.430Z,3.00
2022-11-24T23:44:15.453Z,5.10
2022-11-24T23:46:44.261Z,3.70
2022-11-24T23:49:11.057Z,5.00
2022-11-24T23:51:41.972Z,3.60
2022-11-24T23:54:09.696Z,3.60
2022-11-24T23:56:36.749Z,3.50
2022-11-24T23:59:04.070Z,3.40
